sensor_id;sensor_type;location;lat;lon;timestamp;pressure;altitude;pressure_sealevel;temperature;humidity
11692;BME280;33659;42.672;23.354;2023-05-07T00:01:47;94587.63;;;14.24;65.59
11692;BME280;33659;42.672;23.354;2023-05-07T00:04:15;94584.91;;;14.20;65.85
11692;BME280;33659;42.672;23.354;2023-05-07T00:06:42;94588.91;;;14.14;65.97
11692;BME280;33659;42.672;23.354;2023-05-07T00:09:08;94587.09;;;13.99;66.07
11692;BME280;33659;42.672;23.354;2023-05-07T00:11:36;94592.13;;;13.88;66.06
11692;BME280;33659;42.672;23.354;2023-05-07T00:14:03;94589.00;;;13.82;66.31
11692;BME280;33659;42.672;23.354;2023-05-07T00:16:29;94595.44;;;13.85;66.30
11692;BME280;33659;42.672;23.354;2023-05-07T00:18:56;94593.22;;;13.87;66.45
11692;BME280;33659;42.672;23.354;2023-05-07T00:21:24;94592.13;;;13.88;66.50
11692;BME280;33659;42.672;23.354;2023-05-07T00:23:52;94583.13;;;13.89;66.18
11692;BME280;33659;42.672;23.354;2023-05-07T00:26:19;94580.34;;;13.98;65.96
11692;BME280;33659;42.672;23.354;2023-05-07T00:28:45;94580.13;;;14.06;66.06
11692;BME280;33659;42.672;23.354;2023-05-07T00:31:12;94575.66;;;14.07;65.69
11692;BME280;33659;42.672;23.354;2023-05-07T00:33:39;94580.97;;;14.11;65.66
11692;BME280;33659;42.672;23.354;2023-05-07T00:36:06;94578.41;;;14.14;65.63
11692;BME280;33659;42.672;23.354;2023-05-07T00:38:34;94581.75;;;14.11;65.81
11692;BME280;33659;42.672;23.354;2023-05-07T00:41:00;94588.56;;;14.16;66.11
11692;BME280;33659;42.672;23.354;2023-05-07T00:43:28;94587.41;;;14.13;65.86
11692;BME280;33659;42.672;23.354;2023-05-07T00:45:54;94590.22;;;14.04;66.33
11692;BME280;33659;42.672;23.354;2023-05-07T00:48:21;94581.09;;;13.98;66.67
11692;BME280;33659;42.672;23.354;2023-05-07T00:50:49;94581.72;;;13.92;66.76
11692;BME280;33659;42.672;23.354;2023-05-07T00:53:16;94590.50;;;13.83;67.11
11692;BME280;33659;42.672;23.354;2023-05-07T00:55:44;94585.88;;;13.77;67.46
11692;BME280;33659;42.672;23.354;2023-05-07T00:58:11;94588.34;;;13.70;67.65
11692;BME280;33659;42.672;23.354;2023-05-07T01:00:38;94592.41;;;13.67;67.76
11692;BME280;33659;42.672;23.354;2023-05-07T01:03:05;94588.59;;;13.65;67.81
11692;BME280;33659;42.672;23.354;2023-05-07T01:05:31;94590.88;;;13.50;68.25
11692;BME280;33659;42.672;23.354;2023-05-07T01:07:59;94591.41;;;13.40;68.88
11692;BME280;33659;42.672;23.354;2023-05-07T01:10:27;94592.75;;;13.34;68.89
11692;BME280;33659;42.672;23.354;2023-05-07T01:12:58;94592.00;;;13.34;68.26
11692;BME280;33659;42.672;23.354;2023-05-07T01:15:25;94593.66;;;13.26;67.13
11692;BME280;33659;42.672;23.354;2023-05-07T01:17:52;94592.97;;;13.13;66.66
11692;BME280;33659;42.672;23.354;2023-05-07T01:20:19;94593.13;;;13.05;66.71
11692;BME280;33659;42.672;23.354;2023-05-07T01:22:47;94592.31;;;12.72;67.40
11692;BME280;33659;42.672;23.354;2023-05-07T01:25:14;94594.72;;;12.50;68.27
11692;BME280;33659;42.672;23.354;2023-05-07T01:27:42;94586.56;;;12.27;69.25
11692;BME280;33659;42.672;23.354;2023-05-07T01:30:09;94580.06;;;12.08;69.96
11692;BME280;33659;42.672;23.354;2023-05-07T01:32:40;94587.84;;;12.05;70.35
11692;BME280;33659;42.672;23.354;2023-05-07T01:35:11;94586.63;;;12.02;70.56
11692;BME280;33659;42.672;23.354;2023-05-07T01:37:38;94582.81;;;12.00;70.52
11692;BME280;33659;42.672;23.354;2023-05-07T01:40:08;94580.97;;;12.00;70.50
11692;BME280;33659;42.672;23.354;2023-05-07T01:42:35;94579.72;;;12.10;70.55
11692;BME280;33659;42.672;23.354;2023-05-07T01:45:02;94579.06;;;12.25;70.38
11692;BME280;33659;42.672;23.354;2023-05-07T01:47:29;94570.25;;;12.45;69.68
11692;BME280;33659;42.672;23.354;2023-05-07T01:49:57;94567.44;;;12.66;68.88
11692;BME280;33659;42.672;23.354;2023-05-07T01:52:24;94561.72;;;12.77;68.32
11692;BME280;33659;42.672;23.354;2023-05-07T01:54:51;94564.34;;;12.92;67.80
11692;BME280;33659;42.672;23.354;2023-05-07T01:57:19;94560.50;;;13.02;67.65
11692;BME280;33659;42.672;23.354;2023-05-07T01:59:46;94558.81;;;13.10;67.31
11692;BME280;33659;42.672;23.354;2023-05-07T02:02:12;94561.00;;;13.08;67.21
11692;BME280;33659;42.672;23.354;2023-05-07T02:04:39;94555.06;;;13.11;67.29
11692;BME280;33659;42.672;23.354;2023-05-07T02:07:05;94557.03;;;13.14;67.29
11692;BME280;33659;42.672;23.354;2023-05-07T02:09:32;94548.06;;;13.15;67.52
11692;BME280;33659;42.672;23.354;2023-05-07T02:11:59;94540.69;;;13.05;67.74
11692;BME280;33659;42.672;23.354;2023-05-07T02:14:27;94549.25;;;13.01;67.72
11692;BME280;33659;42.672;23.354;2023-05-07T02:16:53;94542.47;;;13.00;68.00
11692;BME280;33659;42.672;23.354;2023-05-07T02:19:20;94538.31;;;12.99;68.13
11692;BME280;33659;42.672;23.354;2023-05-07T02:21:47;94535.69;;;12.99;68.11
11692;BME280;33659;42.672;23.354;2023-05-07T02:24:14;94542.47;;;13.00;68.27
11692;BME280;33659;42.672;23.354;2023-05-07T02:26:40;94543.06;;;13.10;68.06
11692;BME280;33659;42.672;23.354;2023-05-07T02:29:07;94546.19;;;13.15;67.94
11692;BME280;33659;42.672;23.354;2023-05-07T02:31:35;94546.28;;;13.19;67.75
11692;BME280;33659;42.672;23.354;2023-05-07T02:34:02;94542.78;;;13.27;67.62
11692;BME280;33659;42.672;23.354;2023-05-07T02:36:29;94542.41;;;13.28;67.53
11692;BME280;33659;42.672;23.354;2023-05-07T02:38:55;94542.06;;;13.30;67.44
11692;BME280;33659;42.672;23.354;2023-05-07T02:41:22;94541.22;;;13.26;67.72
11692;BME280;33659;42.672;23.354;2023-05-07T02:43:49;94540.56;;;13.29;67.75
11692;BME280;33659;42.672;23.354;2023-05-07T02:46:15;94539.09;;;13.32;67.81
11692;BME280;33659;42.672;23.354;2023-05-07T02:48:43;94533.03;;;13.27;67.86
11692;BME280;33659;42.672;23.354;2023-05-07T02:51:10;94534.47;;;13.25;67.74
11692;BME280;33659;42.672;23.354;2023-05-07T02:53:37;94543.19;;;13.29;68.04
11692;BME280;33659;42.672;23.354;2023-05-07T02:56:04;94539.34;;;13.26;68.42
11692;BME280;33659;42.672;23.354;2023-05-07T02:58:31;94546.47;;;13.26;68.96
11692;BME280;33659;42.672;23.354;2023-05-07T03:00:58;94546.47;;;13.26;69.44
11692;BME280;33659;42.672;23.354;2023-05-07T03:03:25;94544.69;;;13.14;70.13
11692;BME280;33659;42.672;23.354;2023-05-07T03:05:53;94554.72;;;13.12;70.58
11692;BME280;33659;42.672;23.354;2023-05-07T03:08:19;94552.63;;;13.02;70.72
11692;BME280;33659;42.672;23.354;2023-05-07T03:10:46;94562.25;;;12.98;70.71
11692;BME280;33659;42.672;23.354;2023-05-07T03:13:13;94559.03;;;12.89;70.84
11692;BME280;33659;42.672;23.354;2023-05-07T03:15:40;94560.22;;;12.76;70.76
11692;BME280;33659;42.672;23.354;2023-05-07T03:18:06;94566.91;;;12.61;71.07
11692;BME280;33659;42.672;23.354;2023-05-07T03:20:33;94567.16;;;12.56;71.40
11692;BME280;33659;42.672;23.354;2023-05-07T03:23:03;94571.97;;;12.54;71.54
11692;BME280;33659;42.672;23.354;2023-05-07T03:25:29;94571.38;;;12.44;71.85
11692;BME280;33659;42.672;23.354;2023-05-07T03:27:56;94569.19;;;12.34;72.11
11692;BME280;33659;42.672;23.354;2023-05-07T03:30:23;94569.34;;;12.26;72.59
11692;BME280;33659;42.672;23.354;2023-05-07T03:32:50;94561.84;;;12.24;72.97
11692;BME280;33659;42.672;23.354;2023-05-07T03:35:17;94569.00;;;12.27;72.84
11692;BME280;33659;42.672;23.354;2023-05-07T03:37:43;94569.78;;;12.28;72.86
11692;BME280;33659;42.672;23.354;2023-05-07T03:40:12;94569.63;;;12.36;72.71
11692;BME280;33659;42.672;23.354;2023-05-07T03:42:38;94575.50;;;12.45;72.62
11692;BME280;33659;42.672;23.354;2023-05-07T03:45:06;94580.69;;;12.58;72.08
11692;BME280;33659;42.672;23.354;2023-05-07T03:47:33;94585.03;;;12.66;72.05
11692;BME280;33659;42.672;23.354;2023-05-07T03:49:59;94586.31;;;12.72;71.95
11692;BME280;33659;42.672;23.354;2023-05-07T03:52:26;94579.13;;;12.69;72.25
11692;BME280;33659;42.672;23.354;2023-05-07T03:54:53;94586.13;;;12.65;72.34
11692;BME280;33659;42.672;23.354;2023-05-07T03:57:21;94580.47;;;12.63;72.80
11692;BME280;33659;42.672;23.354;2023-05-07T03:59:48;94589.22;;;12.55;73.13
11692;BME280;33659;42.672;23.354;2023-05-07T04:02:14;94598.84;;;12.51;73.53
11692;BME280;33659;42.672;23.354;2023-05-07T04:04:41;94603.81;;;12.56;73.72
11692;BME280;33659;42.672;23.354;2023-05-07T04:07:07;94604.03;;;12.63;73.63
11692;BME280;33659;42.672;23.354;2023-05-07T04:09:35;94607.72;;;12.62;73.45
11692;BME280;33659;42.672;23.354;2023-05-07T04:12:02;94601.06;;;12.64;73.60
11692;BME280;33659;42.672;23.354;2023-05-07T04:14:30;94608.59;;;12.66;73.52
11692;BME280;33659;42.672;23.354;2023-05-07T04:16:57;94605.09;;;12.62;73.29
11692;BME280;33659;42.672;23.354;2023-05-07T04:19:24;94612.13;;;12.58;73.37
11692;BME280;33659;42.672;23.354;2023-05-07T04:21:51;94620.84;;;12.62;73.63
11692;BME280;33659;42.672;23.354;2023-05-07T04:24:18;94628.84;;;12.81;73.80
11692;BME280;33659;42.672;23.354;2023-05-07T04:26:44;94629.84;;;13.05;72.51
11692;BME280;33659;42.672;23.354;2023-05-07T04:29:11;94633.00;;;13.26;71.32
11692;BME280;33659;42.672;23.354;2023-05-07T04:31:39;94637.78;;;13.36;69.92
11692;BME280;33659;42.672;23.354;2023-05-07T04:34:06;94645.53;;;13.33;69.88
11692;BME280;33659;42.672;23.354;2023-05-07T04:36:32;94635.25;;;13.40;69.99
11692;BME280;33659;42.672;23.354;2023-05-07T04:38:59;94650.13;;;13.51;69.19
11692;BME280;33659;42.672;23.354;2023-05-07T04:41:26;94647.78;;;13.62;68.89
11692;BME280;33659;42.672;23.354;2023-05-07T04:43:52;94647.28;;;13.72;68.50
11692;BME280;33659;42.672;23.354;2023-05-07T04:46:19;94651.03;;;13.91;67.90
11692;BME280;33659;42.672;23.354;2023-05-07T04:48:47;94647.50;;;13.99;67.39
11692;BME280;33659;42.672;23.354;2023-05-07T04:51:14;94650.69;;;14.08;67.12
11692;BME280;33659;42.672;23.354;2023-05-07T04:53:41;94652.19;;;14.25;66.75
11692;BME280;33659;42.672;23.354;2023-05-07T04:56:08;94653.94;;;14.36;66.32
11692;BME280;33659;42.672;23.354;2023-05-07T04:58:35;94652.00;;;14.49;65.97
11692;BME280;33659;42.672;23.354;2023-05-07T05:01:02;94644.56;;;14.55;65.98
11692;BME280;33659;42.672;23.354;2023-05-07T05:03:28;94650.88;;;14.70;65.50
11692;BME280;33659;42.672;23.354;2023-05-07T05:05:56;94650.03;;;14.66;65.48
11692;BME280;33659;42.672;23.354;2023-05-07T05:08:24;94643.66;;;14.47;65.97
11692;BME280;33659;42.672;23.354;2023-05-07T05:10:51;94641.47;;;14.33;66.79
11692;BME280;33659;42.672;23.354;2023-05-07T05:13:18;94638.47;;;14.16;67.30
11692;BME280;33659;42.672;23.354;2023-05-07T05:15:45;94641.69;;;14.09;67.93
11692;BME280;33659;42.672;23.354;2023-05-07T05:18:12;94645.25;;;14.17;68.20
11692;BME280;33659;42.672;23.354;2023-05-07T05:20:39;94644.03;;;14.30;67.62
11692;BME280;33659;42.672;23.354;2023-05-07T05:23:07;94642.25;;;14.34;67.87
11692;BME280;33659;42.672;23.354;2023-05-07T05:25:34;94640.03;;;14.36;67.92
11692;BME280;33659;42.672;23.354;2023-05-07T05:28:01;94645.00;;;14.41;67.96
11692;BME280;33659;42.672;23.354;2023-05-07T05:30:28;94649.00;;;14.51;67.96
11692;BME280;33659;42.672;23.354;2023-05-07T05:32:54;94653.66;;;14.57;67.84
11692;BME280;33659;42.672;23.354;2023-05-07T05:35:21;94647.78;;;14.64;67.56
11692;BME280;33659;42.672;23.354;2023-05-07T05:37:47;94655.91;;;14.59;67.53
11692;BME280;33659;42.672;23.354;2023-05-07T05:40:16;94652.88;;;14.57;67.88
11692;BME280;33659;42.672;23.354;2023-05-07T05:42:42;94653.69;;;14.61;67.88
11692;BME280;33659;42.672;23.354;2023-05-07T05:45:09;94653.94;;;14.72;68.90
11692;BME280;33659;42.672;23.354;2023-05-07T05:47:37;94649.91;;;14.97;70.03
11692;BME280;33659;42.672;23.354;2023-05-07T05:50:05;94649.16;;;15.20;69.05
11692;BME280;33659;42.672;23.354;2023-05-07T05:52:32;94647.41;;;15.47;67.88
11692;BME280;33659;42.672;23.354;2023-05-07T05:54:58;94648.88;;;15.67;65.89
11692;BME280;33659;42.672;23.354;2023-05-07T05:57:26;94640.50;;;15.61;65.13
11692;BME280;33659;42.672;23.354;2023-05-07T05:59:53;94652.22;;;15.64;65.04
11692;BME280;33659;42.672;23.354;2023-05-07T06:02:20;94655.47;;;15.57;65.17
11692;BME280;33659;42.672;23.354;2023-05-07T06:04:46;94654.66;;;15.53;65.10
11692;BME280;33659;42.672;23.354;2023-05-07T06:07:13;94657.66;;;15.32;65.80
11692;BME280;33659;42.672;23.354;2023-05-07T06:09:40;94658.78;;;15.31;65.83
11692;BME280;33659;42.672;23.354;2023-05-07T06:12:06;94656.75;;;15.44;65.81
11692;BME280;33659;42.672;23.354;2023-05-07T06:14:34;94654.00;;;15.60;65.14
11692;BME280;33659;42.672;23.354;2023-05-07T06:17:01;94658.78;;;15.74;64.40
11692;BME280;33659;42.672;23.354;2023-05-07T06:19:28;94651.81;;;15.85;64.27
11692;BME280;33659;42.672;23.354;2023-05-07T06:21:54;94648.56;;;15.95;63.58
11692;BME280;33659;42.672;23.354;2023-05-07T06:24:22;94644.59;;;16.08;63.41
11692;BME280;33659;42.672;23.354;2023-05-07T06:26:49;94644.41;;;16.20;63.06
11692;BME280;33659;42.672;23.354;2023-05-07T06:29:15;94645.22;;;16.24;63.19
11692;BME280;33659;42.672;23.354;2023-05-07T06:31:43;94630.19;;;16.25;62.85
11692;BME280;33659;42.672;23.354;2023-05-07T06:34:10;94641.78;;;16.20;62.56
11692;BME280;33659;42.672;23.354;2023-05-07T06:36:39;94634.50;;;16.10;63.04
11692;BME280;33659;42.672;23.354;2023-05-07T06:39:06;94634.78;;;16.05;63.22
11692;BME280;33659;42.672;23.354;2023-05-07T06:41:32;94629.47;;;16.02;63.15
11692;BME280;33659;42.672;23.354;2023-05-07T06:43:59;94629.56;;;16.09;63.67
11692;BME280;33659;42.672;23.354;2023-05-07T06:46:27;94624.84;;;16.21;63.04
11692;BME280;33659;42.672;23.354;2023-05-07T06:48:55;94623.94;;;16.37;62.56
11692;BME280;33659;42.672;23.354;2023-05-07T06:51:22;94623.28;;;16.47;62.04
11692;BME280;33659;42.672;23.354;2023-05-07T06:53:48;94619.50;;;16.44;61.79
11692;BME280;33659;42.672;23.354;2023-05-07T06:56:15;94619.06;;;16.39;62.35
11692;BME280;33659;42.672;23.354;2023-05-07T06:58:41;94615.22;;;16.33;62.19
11692;BME280;33659;42.672;23.354;2023-05-07T07:01:08;94609.84;;;16.25;62.18
11692;BME280;33659;42.672;23.354;2023-05-07T07:03:35;94611.44;;;16.30;62.46
11692;BME280;33659;42.672;23.354;2023-05-07T07:06:03;94623.25;;;16.43;62.55
11692;BME280;33659;42.672;23.354;2023-05-07T07:08:30;94626.34;;;16.49;62.64
11692;BME280;33659;42.672;23.354;2023-05-07T07:10:56;94618.53;;;16.56;62.65
11692;BME280;33659;42.672;23.354;2023-05-07T07:13:23;94615.72;;;16.72;62.15
11692;BME280;33659;42.672;23.354;2023-05-07T07:15:51;94616.53;;;16.79;61.50
11692;BME280;33659;42.672;23.354;2023-05-07T07:18:17;94619.63;;;16.85;61.64
11692;BME280;33659;42.672;23.354;2023-05-07T07:20:44;94609.56;;;16.94;61.74
11692;BME280;33659;42.672;23.354;2023-05-07T07:23:12;94614.53;;;17.03;61.73
11692;BME280;33659;42.672;23.354;2023-05-07T07:25:39;94616.50;;;17.10;61.36
11692;BME280;33659;42.672;23.354;2023-05-07T07:28:06;94610.91;;;17.15;61.32
11692;BME280;33659;42.672;23.354;2023-05-07T07:30:32;94607.56;;;17.21;60.96
11692;BME280;33659;42.672;23.354;2023-05-07T07:32:59;94601.53;;;17.24;61.13
11692;BME280;33659;42.672;23.354;2023-05-07T07:35:27;94613.41;;;17.41;60.49
11692;BME280;33659;42.672;23.354;2023-05-07T07:37:54;94611.94;;;17.47;60.42
11692;BME280;33659;42.672;23.354;2023-05-07T07:40:22;94615.72;;;17.50;60.50
11692;BME280;33659;42.672;23.354;2023-05-07T07:42:50;94618.00;;;17.51;61.44
11692;BME280;33659;42.672;23.354;2023-05-07T07:45:16;94618.88;;;17.66;63.79
11692;BME280;33659;42.672;23.354;2023-05-07T07:47:43;94622.03;;;17.79;62.01
11692;BME280;33659;42.672;23.354;2023-05-07T07:50:10;94622.09;;;17.90;60.13
11692;BME280;33659;42.672;23.354;2023-05-07T07:52:37;94606.94;;;17.83;60.16
11692;BME280;33659;42.672;23.354;2023-05-07T07:55:05;94630.06;;;17.93;60.39
11692;BME280;33659;42.672;23.354;2023-05-07T07:57:33;94627.84;;;17.99;58.89
11692;BME280;33659;42.672;23.354;2023-05-07T08:00:00;94626.69;;;18.00;59.15
11692;BME280;33659;42.672;23.354;2023-05-07T08:02:27;94624.47;;;18.05;57.88
11692;BME280;33659;42.672;23.354;2023-05-07T08:04:54;94622.22;;;18.04;57.84
11692;BME280;33659;42.672;23.354;2023-05-07T08:07:20;94611.25;;;18.05;57.49
11692;BME280;33659;42.672;23.354;2023-05-07T08:09:48;94617.69;;;18.08;57.15
11692;BME280;33659;42.672;23.354;2023-05-07T08:12:15;94615.09;;;18.11;56.80
11692;BME280;33659;42.672;23.354;2023-05-07T08:14:43;94619.25;;;18.16;57.47
11692;BME280;33659;42.672;23.354;2023-05-07T08:17:09;94617.03;;;18.25;57.37
11692;BME280;33659;42.672;23.354;2023-05-07T08:19:36;94611.75;;;18.29;57.16
11692;BME280;33659;42.672;23.354;2023-05-07T08:22:03;94613.38;;;18.44;56.05
11692;BME280;33659;42.672;23.354;2023-05-07T08:24:30;94610.00;;;18.54;56.84
11692;BME280;33659;42.672;23.354;2023-05-07T08:26:57;94608.88;;;18.59;55.27
11692;BME280;33659;42.672;23.354;2023-05-07T08:29:24;94607.00;;;18.59;55.64
11692;BME280;33659;42.672;23.354;2023-05-07T08:31:52;94603.97;;;18.61;56.09
11692;BME280;33659;42.672;23.354;2023-05-07T08:34:19;94610.09;;;18.69;56.07
11692;BME280;33659;42.672;23.354;2023-05-07T08:36:46;94606.72;;;18.75;54.78
11692;BME280;33659;42.672;23.354;2023-05-07T08:39:13;94612.41;;;18.81;53.94
11692;BME280;33659;42.672;23.354;2023-05-07T08:41:40;94603.34;;;18.82;53.63
11692;BME280;33659;42.672;23.354;2023-05-07T08:44:12;94594.66;;;18.88;52.78
11692;BME280;33659;42.672;23.354;2023-05-07T08:46:39;94607.53;;;18.93;53.13
11692;BME280;33659;42.672;23.354;2023-05-07T08:49:08;94601.13;;;19.02;52.02
11692;BME280;33659;42.672;23.354;2023-05-07T08:51:35;94590.91;;;19.11;51.61
11692;BME280;33659;42.672;23.354;2023-05-07T08:54:02;94592.44;;;19.19;52.14
11692;BME280;33659;42.672;23.354;2023-05-07T08:56:30;94590.19;;;19.21;51.08
11692;BME280;33659;42.672;23.354;2023-05-07T08:58:56;94586.78;;;19.24;49.12
11692;BME280;33659;42.672;23.354;2023-05-07T09:01:24;94579.97;;;19.16;50.17
11692;BME280;33659;42.672;23.354;2023-05-07T09:03:51;94584.13;;;19.17;51.43
11692;BME280;33659;42.672;23.354;2023-05-07T09:06:21;94587.16;;;19.19;51.78
11692;BME280;33659;42.672;23.354;2023-05-07T09:08:51;94569.75;;;19.11;50.65
11692;BME280;33659;42.672;23.354;2023-05-07T09:11:20;94569.00;;;19.17;49.56
11692;BME280;33659;42.672;23.354;2023-05-07T09:13:48;94581.50;;;19.28;50.83
11692;BME280;33659;42.672;23.354;2023-05-07T09:16:15;94575.06;;;19.36;49.91
11692;BME280;33659;42.672;23.354;2023-05-07T09:18:42;94568.63;;;19.44;49.35
11692;BME280;33659;42.672;23.354;2023-05-07T09:21:10;94562.59;;;19.47;50.13
11692;BME280;33659;42.672;23.354;2023-05-07T09:23:39;94564.47;;;19.50;50.63
11692;BME280;33659;42.672;23.354;2023-05-07T09:26:06;94559.94;;;19.58;49.86
11692;BME280;33659;42.672;23.354;2023-05-07T09:28:38;94561.47;;;19.52;48.94
11692;BME280;33659;42.672;23.354;2023-05-07T09:31:05;94548.59;;;19.39;49.40
11692;BME280;33659;42.672;23.354;2023-05-07T09:33:31;94556.91;;;19.48;49.76
11692;BME280;33659;42.672;23.354;2023-05-07T09:35:58;94552.75;;;19.55;47.50
11692;BME280;33659;42.672;23.354;2023-05-07T09:38:25;94564.91;;;19.59;47.56
11692;BME280;33659;42.672;23.354;2023-05-07T09:41:03;94557.31;;;19.65;47.31
11692;BME280;33659;42.672;23.354;2023-05-07T09:43:32;94553.16;;;19.71;46.79
11692;BME280;33659;42.672;23.354;2023-05-07T09:46:02;94545.94;;;19.82;46.12
11692;BME280;33659;42.672;23.354;2023-05-07T09:48:29;94539.50;;;19.90;45.95
11692;BME280;33659;42.672;23.354;2023-05-07T09:50:57;94539.06;;;20.02;45.55
11692;BME280;33659;42.672;23.354;2023-05-07T09:53:29;94541.31;;;20.15;44.27
11692;BME280;33659;42.672;23.354;2023-05-07T09:55:56;94537.53;;;20.16;44.40
11692;BME280;33659;42.672;23.354;2023-05-07T09:58:25;94533.38;;;20.11;45.36
11692;BME280;33659;42.672;23.354;2023-05-07T10:00:52;94536.41;;;20.10;44.81
11692;BME280;33659;42.672;23.354;2023-05-07T10:03:20;94536.38;;;20.20;44.26
11692;BME280;33659;42.672;23.354;2023-05-07T10:05:47;94536.72;;;20.29;43.93
11692;BME280;33659;42.672;23.354;2023-05-07T10:08:15;94531.03;;;20.31;42.45
11692;BME280;33659;42.672;23.354;2023-05-07T10:10:42;94537.09;;;20.35;42.58
11692;BME280;33659;42.672;23.354;2023-05-07T10:13:10;94532.53;;;20.32;43.09
11692;BME280;33659;42.672;23.354;2023-05-07T10:15:38;94523.44;;;20.37;42.22
11692;BME280;33659;42.672;23.354;2023-05-07T10:18:06;94520.38;;;20.38;41.49
11692;BME280;33659;42.672;23.354;2023-05-07T10:20:33;94523.78;;;20.42;41.89
11692;BME280;33659;42.672;23.354;2023-05-07T10:23:04;94525.69;;;20.49;42.43
11692;BME280;33659;42.672;23.354;2023-05-07T10:25:32;94522.59;;;20.58;41.91
11692;BME280;33659;42.672;23.354;2023-05-07T10:28:01;94521.44;;;20.62;40.79
11692;BME280;33659;42.672;23.354;2023-05-07T10:30:36;94515.34;;;20.69;41.30
11692;BME280;33659;42.672;23.354;2023-05-07T10:33:10;94504.34;;;20.70;41.01
11692;BME280;33659;42.672;23.354;2023-05-07T10:35:41;94505.78;;;20.82;40.48
11692;BME280;33659;42.672;23.354;2023-05-07T10:38:09;94498.13;;;20.95;39.75
11692;BME280;33659;42.672;23.354;2023-05-07T10:40:36;94494.25;;;21.06;39.16
11692;BME280;33659;42.672;23.354;2023-05-07T10:43:04;94493.47;;;21.09;39.84
11692;BME280;33659;42.672;23.354;2023-05-07T10:45:31;94495.72;;;21.11;39.15
11692;BME280;33659;42.672;23.354;2023-05-07T10:48:10;94496.91;;;21.06;38.71
11692;BME280;33659;42.672;23.354;2023-05-07T10:50:37;94484.00;;;21.08;38.47
11692;BME280;33659;42.672;23.354;2023-05-07T10:53:24;94466.56;;;21.07;39.04
11692;BME280;33659;42.672;23.354;2023-05-07T10:56:24;94489.09;;;21.37;39.09
11692;BME280;33659;42.672;23.354;2023-05-07T10:58:51;94491.59;;;21.55;38.18
11692;BME280;33659;42.672;23.354;2023-05-07T11:01:52;94483.47;;;21.69;38.38
11692;BME280;33659;42.672;23.354;2023-05-07T11:04:21;94484.09;;;21.84;37.59
11692;BME280;33659;42.672;23.354;2023-05-07T11:07:21;94482.44;;;21.97;37.95
11692;BME280;33659;42.672;23.354;2023-05-07T11:09:58;94485.78;;;22.01;37.31
11692;BME280;33659;42.672;23.354;2023-05-07T11:12:51;94480.38;;;22.12;37.70
11692;BME280;33659;42.672;23.354;2023-05-07T11:15:41;94478.75;;;22.22;36.62
11692;BME280;33659;42.672;23.354;2023-05-07T11:18:09;94469.34;;;22.13;36.42
11692;BME280;33659;42.672;23.354;2023-05-07T11:20:48;94481.13;;;22.16;36.47
11692;BME280;33659;42.672;23.354;2023-05-07T11:23:55;94471.22;;;22.16;36.87
11692;BME280;33659;42.672;23.354;2023-05-07T11:26:27;94472.16;;;21.99;36.11
11692;BME280;33659;42.672;23.354;2023-05-07T11:28:54;94469.28;;;21.83;36.57
11692;BME280;33659;42.672;23.354;2023-05-07T11:31:24;94466.38;;;21.70;37.23
11692;BME280;33659;42.672;23.354;2023-05-07T11:33:52;94465.25;;;21.71;36.86
11692;BME280;33659;42.672;23.354;2023-05-07T11:36:23;94470.06;;;21.83;37.04
11692;BME280;33659;42.672;23.354;2023-05-07T11:38:50;94454.06;;;21.87;36.40
11692;BME280;33659;42.672;23.354;2023-05-07T11:41:17;94461.09;;;22.04;36.25
11692;BME280;33659;42.672;23.354;2023-05-07T11:43:56;94458.25;;;22.22;36.20
11692;BME280;33659;42.672;23.354;2023-05-07T11:46:23;94458.66;;;22.48;36.33
11692;BME280;33659;42.672;23.354;2023-05-07T11:48:50;94455.25;;;22.74;35.15
11692;BME280;33659;42.672;23.354;2023-05-07T11:51:22;94460.28;;;22.95;34.10
11692;BME280;33659;42.672;23.354;2023-05-07T11:53:49;94462.72;;;23.10;33.70
11692;BME280;33659;42.672;23.354;2023-05-07T11:56:17;94454.19;;;23.18;34.07
11692;BME280;33659;42.672;23.354;2023-05-07T11:58:45;94470.56;;;23.20;34.74
11692;BME280;33659;42.672;23.354;2023-05-07T12:01:13;94454.63;;;23.17;33.89
11692;BME280;33659;42.672;23.354;2023-05-07T12:03:42;94458.59;;;23.05;34.11
11692;BME280;33659;42.672;23.354;2023-05-07T12:06:11;94458.25;;;23.03;34.36
11692;BME280;33659;42.672;23.354;2023-05-07T12:08:41;94455.78;;;23.16;34.46
11692;BME280;33659;42.672;23.354;2023-05-07T12:11:09;94447.03;;;23.15;33.74
11692;BME280;33659;42.672;23.354;2023-05-07T12:13:36;94431.09;;;23.12;34.01
11692;BME280;33659;42.672;23.354;2023-05-07T12:16:04;94437.25;;;23.32;33.94
11692;BME280;33659;42.672;23.354;2023-05-07T12:18:33;94438.16;;;23.45;33.79
11692;BME280;33659;42.672;23.354;2023-05-07T12:21:00;94430.22;;;23.65;33.23
11692;BME280;33659;42.672;23.354;2023-05-07T12:23:28;94432.56;;;23.83;33.19
11692;BME280;33659;42.672;23.354;2023-05-07T12:25:56;94422.00;;;23.96;32.85
11692;BME280;33659;42.672;23.354;2023-05-07T12:28:23;94428.00;;;24.00;32.82
11692;BME280;33659;42.672;23.354;2023-05-07T12:30:50;94422.69;;;24.00;32.68
11692;BME280;33659;42.672;23.354;2023-05-07T12:33:18;94393.44;;;23.76;32.39
11692;BME280;33659;42.672;23.354;2023-05-07T12:35:47;94406.13;;;23.89;32.33
11692;BME280;33659;42.672;23.354;2023-05-07T12:38:16;94412.91;;;23.93;31.31
11692;BME280;33659;42.672;23.354;2023-05-07T12:40:44;94411.13;;;24.07;31.18
11692;BME280;33659;42.672;23.354;2023-05-07T12:43:17;94403.81;;;24.27;30.86
11692;BME280;33659;42.672;23.354;2023-05-07T12:45:45;94394.97;;;24.50;30.56
11692;BME280;33659;42.672;23.354;2023-05-07T12:48:12;94400.41;;;24.63;30.54
11692;BME280;33659;42.672;23.354;2023-05-07T12:50:39;94385.41;;;24.69;30.08
11692;BME280;33659;42.672;23.354;2023-05-07T12:53:07;94392.16;;;24.90;29.40
11692;BME280;33659;42.672;23.354;2023-05-07T12:55:41;94381.53;;;25.02;29.35